Time;durP1;ratioP1;P1;durP2;ratioP2;P2;SDS_P1;SDS_P2;PMS_P1;PMS_P2;Temp;Humidity;BMP_temperature;BMP_pressure;BME280_temperature;BME280_humidity;BME280_pressure;Samples;Min_cycle;Max_cycle;Signal;HPM_P1;HPM_P2
2022/03/31 00:00:38;;;;;;;;;;;11.90;95.20;;;;;;4261134;33;43207;-85
2022/03/31 00:03:10;;;;;;;;;;;11.90;95.40;;;;;;4260965;33;43983;-85
2022/03/31 00:05:38;;;;;;;;;;;11.80;95.30;;;;;;4273339;33;43512;-85
2022/03/31 00:08:06;;;;;;;;;;;11.90;95.30;;;;;;4273033;33;43900;-85
2022/03/31 00:10:35;;;;;;;;;;;11.80;95.30;;;;;;4260924;33;43136;-85
2022/03/31 00:13:03;;;;;;;;;;;11.90;95.40;;;;;;4261039;33;43272;-85
2022/03/31 00:15:31;;;;;;;;;;;11.80;95.40;;;;;;4273221;33;43189;-85
2022/03/31 00:17:59;;;;;;;;;;;11.80;95.50;;;;;;4260570;33;43501;-85
2022/03/31 00:20:26;;;;;;;;;;;11.80;95.40;;;;;;4260878;33;44226;-85
2022/03/31 00:22:54;;;;;;;;;;;11.70;95.50;;;;;;4273522;33;44207;-85
2022/03/31 00:25:23;;;;;;;;;;;11.70;95.60;;;;;;4273509;33;43963;-85
2022/03/31 00:27:51;;;;;;;;;;;11.80;95.80;;;;;;4273389;33;44380;-85
2022/03/31 00:30:18;;;;;;;;;;;11.80;95.70;;;;;;4273105;33;42665;-85
2022/03/31 00:32:45;;;;;;;;;;;11.70;95.60;;;;;;4272911;33;42052;-85
2022/03/31 00:35:13;;;;;;;;;;;11.70;95.70;;;;;;4260469;33;42885;-86
2022/03/31 00:37:41;;;;;;;;;;;11.60;95.80;;;;;;4272700;33;44908;-85
2022/03/31 00:40:09;;;;;;;;;;;11.60;95.80;;;;;;4272804;33;42859;-85
2022/03/31 00:42:40;;;;;;;;;;;11.60;95.80;;;;;;4260499;33;41600;-85
2022/03/31 00:45:11;;;;;;;;;;;11.60;95.80;;;;;;4272871;33;42737;-85
2022/03/31 00:47:38;;;;;;;;;;;11.50;95.80;;;;;;4273520;33;43713;-85
2022/03/31 00:50:06;;;;;;;;;;;11.50;95.90;;;;;;4260293;33;42744;-85
2022/03/31 00:52:33;;;;;;;;;;;11.50;95.90;;;;;;4272709;33;42716;-85
2022/03/31 00:55:00;;;;;;;;;;;11.50;96.00;;;;;;4273159;33;44207;-85
2022/03/31 00:57:28;;;;;;;;;;;11.50;96.20;;;;;;4259953;33;43184;-85
2022/03/31 00:59:56;;;;;;;;;;;11.50;96.30;;;;;;4259991;33;43131;-84
2022/03/31 01:02:23;;;;;;;;;;;11.50;96.20;;;;;;4272726;33;43267;-85
2022/03/31 01:04:51;;;;;;;;;;;11.40;96.10;;;;;;4272860;33;42792;-85
2022/03/31 01:07:18;;;;;;;;;;;11.40;96.10;;;;;;4272434;33;43526;-85
2022/03/31 01:09:45;;;;;;;;;;;11.40;96.30;;;;;;4272947;33;43755;-85
2022/03/31 01:12:12;;;;;;;;;;;11.40;96.20;;;;;;4259825;33;44397;-86
2022/03/31 01:14:39;;;;;;;;;;;11.50;96.30;;;;;;4272720;33;43282;-85
2022/03/31 01:17:06;;;;;;;;;;;11.50;96.40;;;;;;4260081;33;42964;-85
2022/03/31 01:19:33;;;;;;;;;;;11.50;96.50;;;;;;4259492;33;43356;-85
2022/03/31 01:22:00;;;;;;;;;;;11.50;96.50;;;;;;4272795;33;44249;-85
2022/03/31 01:24:28;;;;;;;;;;;11.50;96.50;;;;;;4259560;33;42982;-85
2022/03/31 01:26:55;;;;;;;;;;;11.50;96.50;;;;;;4272837;33;43955;-85
2022/03/31 01:29:26;;;;;;;;;;;11.50;96.50;;;;;;4260044;33;43961;-85
2022/03/31 01:31:54;;;;;;;;;;;11.50;96.40;;;;;;4260119;33;43963;-84
2022/03/31 01:34:21;;;;;;;;;;;11.50;96.40;;;;;;4259590;33;43011;-85
2022/03/31 01:36:48;;;;;;;;;;;11.50;96.50;;;;;;4272660;33;43041;-85
2022/03/31 01:39:15;;;;;;;;;;;11.50;96.60;;;;;;4259514;33;43262;-85
2022/03/31 01:41:42;;;;;;;;;;;11.40;96.70;;;;;;4272501;33;42663;-84
2022/03/31 01:44:10;;;;;;;;;;;11.40;96.60;;;;;;4259841;33;44170;-84
2022/03/31 01:46:37;;;;;;;;;;;11.40;96.70;;;;;;4259369;33;42617;-84
2022/03/31 01:49:04;;;;;;;;;;;11.40;96.60;;;;;;4259443;33;42499;-85
2022/03/31 01:51:31;;;;;;;;;;;11.30;96.50;;;;;;4259890;33;43184;-84
2022/03/31 01:53:58;;;;;;;;;;;11.30;96.60;;;;;;4259839;33;44676;-84
2022/03/31 01:56:25;;;;;;;;;;;11.30;96.80;;;;;;4259453;33;43966;-84
2022/03/31 01:58:52;;;;;;;;;;;11.30;96.90;;;;;;4272574;33;43585;-84
2022/03/31 02:01:19;;;;;;;;;;;11.30;96.90;;;;;;4272613;33;43159;-85
2022/03/31 02:03:46;;;;;;;;;;;11.30;97.00;;;;;;4272150;33;44113;-85
2022/03/31 02:06:13;;;;;;;;;;;11.20;97.00;;;;;;4259339;33;43767;-84
2022/03/31 02:08:43;;;;;;;;;;;11.30;97.10;;;;;;4259336;33;43290;-85
2022/03/31 02:11:11;;;;;;;;;;;11.30;97.10;;;;;;4271929;33;44379;-85
2022/03/31 02:13:38;;;;;;;;;;;11.30;97.30;;;;;;4272437;33;43265;-84
2022/03/31 02:16:05;;;;;;;;;;;11.30;97.40;;;;;;4271990;33;43860;-85
2022/03/31 02:18:32;;;;;;;;;;;11.30;97.40;;;;;;4259572;33;42821;-85
2022/03/31 02:20:59;;;;;;;;;;;11.30;97.40;;;;;;4272636;33;44317;-85
2022/03/31 02:23:26;;;;;;;;;;;11.30;97.40;;;;;;4271025;33;43445;-84
2022/03/31 02:25:53;;;;;;;;;;;11.30;97.50;;;;;;4272199;33;44937;-84
2022/03/31 02:28:20;;;;;;;;;;;11.30;97.40;;;;;;4272430;33;43316;-85
2022/03/31 02:30:47;;;;;;;;;;;11.30;97.40;;;;;;4260483;33;43433;-85
2022/03/31 02:33:15;;;;;;;;;;;11.20;97.30;;;;;;4275054;33;44004;-85
2022/03/31 02:35:42;;;;;;;;;;;11.20;97.40;;;;;;4261815;33;43524;-85
2022/03/31 02:38:09;;;;;;;;;;;11.30;97.40;;;;;;4274895;33;43961;-85
2022/03/31 02:40:36;;;;;;;;;;;11.30;97.50;;;;;;4274690;33;43898;-85
2022/03/31 02:43:04;;;;;;;;;;;11.20;97.60;;;;;;4273730;33;43942;-85
2022/03/31 02:45:31;;;;;;;;;;;11.20;97.50;;;;;;4274761;33;44434;-85
2022/03/31 02:47:58;;;;;;;;;;;11.30;97.40;;;;;;4274415;33;43909;-85
2022/03/31 02:50:25;;;;;;;;;;;11.30;97.50;;;;;;4274848;33;43313;-85
2022/03/31 02:55:38;;;;;;;;;;;11.30;97.40;;;;;;4275405;33;20431;-85
2022/03/31 02:58:05;;;;;;;;;;;11.30;97.40;;;;;;4274614;33;44178;-85
2022/03/31 03:00:34;;;;;;;;;;;11.20;97.50;;;;;;4274660;33;43850;-85
2022/03/31 03:03:03;;;;;;;;;;;11.20;97.50;;;;;;4274097;33;43290;-84
2022/03/31 03:05:31;;;;;;;;;;;11.20;97.70;;;;;;4274474;33;44044;-85
2022/03/31 03:07:59;;;;;;;;;;;11.20;97.70;;;;;;4262016;33;44268;-84
2022/03/31 03:10:26;;;;;;;;;;;11.20;97.70;;;;;;4261367;33;43466;-84
2022/03/31 03:12:56;;;;;;;;;;;11.20;97.70;;;;;;4274367;33;44723;-84
2022/03/31 03:15:25;;;;;;;;;;;11.20;97.70;;;;;;4261342;33;43564;-84
2022/03/31 03:17:52;;;;;;;;;;;11.20;97.90;;;;;;4261818;33;43222;-84
2022/03/31 03:20:19;;;;;;;;;;;11.20;97.90;;;;;;4274188;33;44197;-84
2022/03/31 03:22:47;;;;;;;;;;;11.20;98.00;;;;;;4261565;33;43094;-85
2022/03/31 03:25:18;;;;;;;;;;;11.20;97.90;;;;;;4274347;33;43499;-84
2022/03/31 03:27:46;;;;;;;;;;;11.20;98.10;;;;;;4274234;33;45560;-84
2022/03/31 03:30:14;;;;;;;;;;;11.20;98.00;;;;;;4261310;33;43781;-85
2022/03/31 03:32:41;;;;;;;;;;;11.10;98.10;;;;;;4273968;33;44313;-84
2022/03/31 03:35:09;;;;;;;;;;;11.10;98.10;;;;;;4261141;33;44663;-85
2022/03/31 03:37:37;;;;;;;;;;;11.10;98.00;;;;;;4261345;33;43866;-85
2022/03/31 03:40:05;;;;;;;;;;;11.10;98.10;;;;;;4273872;33;43085;-85
2022/03/31 03:42:32;;;;;;;;;;;11.10;98.10;;;;;;4261027;33;43770;-85
2022/03/31 03:45:00;;;;;;;;;;;11.10;98.10;;;;;;4273622;33;43063;-85
2022/03/31 03:47:27;;;;;;;;;;;11.00;97.90;;;;;;4273816;33;43881;-84
2022/03/31 03:49:54;;;;;;;;;;;11.00;97.70;;;;;;4260881;33;43798;-85
2022/03/31 03:52:21;;;;;;;;;;;11.00;97.80;;;;;;4273900;33;43685;-85
2022/03/31 03:54:48;;;;;;;;;;;11.00;97.80;;;;;;4273701;33;45898;-85
2022/03/31 03:57:16;;;;;;;;;;;11.00;97.60;;;;;;4273348;33;43829;-85
2022/03/31 03:59:43;;;;;;;;;;;11.00;97.50;;;;;;4261141;33;43686;-84
2022/03/31 04:02:10;;;;;;;;;;;11.00;97.50;;;;;;4273237;33;43482;-84
2022/03/31 04:04:37;;;;;;;;;;;10.90;97.40;;;;;;4260694;33;44079;-85
2022/03/31 04:07:05;;;;;;;;;;;10.90;97.40;;;;;;4261092;33;42929;-85
2022/03/31 04:09:32;;;;;;;;;;;10.90;97.60;;;;;;4260593;33;42854;-85
2022/03/31 04:11:59;;;;;;;;;;;10.90;97.50;;;;;;4273533;33;43951;-85
2022/03/31 04:14:26;;;;;;;;;;;10.90;97.60;;;;;;4260992;33;43994;-84
2022/03/31 04:16:55;;;;;;;;;;;10.90;97.60;;;;;;4273087;33;44127;-85
2022/03/31 04:19:22;;;;;;;;;;;10.80;97.60;;;;;;4260460;33;44353;-85
2022/03/31 04:21:49;;;;;;;;;;;10.80;97.50;;;;;;4260701;33;44992;-84
2022/03/31 04:24:16;;;;;;;;;;;10.90;97.50;;;;;;4260462;33;42256;-84
2022/03/31 04:26:44;;;;;;;;;;;10.80;97.50;;;;;;4260900;33;43483;-84
2022/03/31 04:29:11;;;;;;;;;;;10.80;97.60;;;;;;4260663;33;43500;-84
2022/03/31 04:31:41;;;;;;;;;;;10.80;97.50;;;;;;4260608;33;44910;-84
2022/03/31 04:34:15;;;;;;;;;;;10.80;97.60;;;;;;4272851;33;43636;-84
2022/03/31 04:36:42;;;;;;;;;;;10.80;97.60;;;;;;4273266;33;42765;-84
2022/03/31 04:39:14;;;;;;;;;;;10.80;97.70;;;;;;4261423;33;43917;-83
2022/03/31 04:41:42;;;;;;;;;;;10.70;97.60;;;;;;4272905;33;43076;-84
2022/03/31 04:44:10;;;;;;;;;;;10.80;97.50;;;;;;4260132;33;42985;-83
2022/03/31 04:46:37;;;;;;;;;;;10.70;97.50;;;;;;4273312;33;43240;-83
2022/03/31 04:49:05;;;;;;;;;;;10.70;97.60;;;;;;4260614;33;44756;-84
2022/03/31 04:51:32;;;;;;;;;;;10.70;97.60;;;;;;4273133;33;42882;-84
2022/03/31 04:54:00;;;;;;;;;;;10.70;97.60;;;;;;4259753;33;42908;-84
2022/03/31 04:56:27;;;;;;;;;;;10.70;97.50;;;;;;4273020;33;43485;-84
2022/03/31 04:58:54;;;;;;;;;;;10.60;97.50;;;;;;4272832;33;42636;-84
2022/03/31 05:01:23;;;;;;;;;;;10.60;97.60;;;;;;4260094;33;43138;-84
2022/03/31 05:03:53;;;;;;;;;;;10.60;97.40;;;;;;4260250;33;43241;-84
2022/03/31 05:06:21;;;;;;;;;;;10.60;97.60;;;;;;4260116;33;42617;-84
2022/03/31 05:08:48;;;;;;;;;;;10.60;97.50;;;;;;4259985;33;44222;-84
2022/03/31 05:11:15;;;;;;;;;;;10.50;97.60;;;;;;4272863;33;44036;-84
2022/03/31 05:13:42;;;;;;;;;;;10.50;97.60;;;;;;4259739;33;42227;-84
2022/03/31 05:16:09;;;;;;;;;;;10.50;97.60;;;;;;4272398;33;42737;-84
2022/03/31 05:18:36;;;;;;;;;;;10.50;97.60;;;;;;4272511;33;43828;-84
2022/03/31 05:21:04;;;;;;;;;;;10.50;97.70;;;;;;4259603;33;44959;-84
2022/03/31 05:23:31;;;;;;;;;;;10.50;97.60;;;;;;4259739;33;42711;-84
2022/03/31 05:25:58;;;;;;;;;;;10.50;97.50;;;;;;4272661;33;42338;-84
2022/03/31 05:28:25;;;;;;;;;;;10.50;97.50;;;;;;4272605;33;45061;-84
2022/03/31 05:30:52;;;;;;;;;;;10.50;97.40;;;;;;4259926;33;44203;-84
2022/03/31 05:33:26;;;;;;;;;;;10.50;97.40;;;;;;4260862;33;43478;-84
2022/03/31 05:35:53;;;;;;;;;;;10.50;97.40;;;;;;4272387;33;43487;-84
2022/03/31 05:38:20;;;;;;;;;;;10.50;97.50;;;;;;4272317;33;44247;-84
2022/03/31 05:40:47;;;;;;;;;;;10.50;97.40;;;;;;4259822;33;42650;-84
2022/03/31 05:43:15;;;;;;;;;;;10.40;97.30;;;;;;4272334;33;43111;-83
2022/03/31 05:45:42;;;;;;;;;;;10.40;97.30;;;;;;4259843;33;43900;-84
2022/03/31 05:48:09;;;;;;;;;;;10.40;97.30;;;;;;4259419;33;42762;-84
2022/03/31 05:50:37;;;;;;;;;;;10.40;97.30;;;;;;4272227;33;44048;-83
2022/03/31 05:53:04;;;;;;;;;;;10.30;97.20;;;;;;4272437;33;42903;-83
2022/03/31 05:55:32;;;;;;;;;;;10.30;97.10;;;;;;4272128;33;44235;-83
2022/03/31 05:57:59;;;;;;;;;;;10.30;97.20;;;;;;4271899;33;44465;-84
2022/03/31 06:00:29;;;;;;;;;;;10.30;97.20;;;;;;4272085;33;45286;-83
2022/03/31 06:02:56;;;;;;;;;;;10.30;97.20;;;;;;4272046;33;43577;-84
2022/03/31 06:05:24;;;;;;;;;;;10.30;97.10;;;;;;4260550;33;42207;-84
2022/03/31 06:07:52;;;;;;;;;;;10.20;97.10;;;;;;4262573;33;44078;-84
2022/03/31 06:10:20;;;;;;;;;;;10.20;97.20;;;;;;4262548;33;43419;-83
2022/03/31 06:12:47;;;;;;;;;;;10.20;97.00;;;;;;4274866;33;43397;-84
2022/03/31 06:15:15;;;;;;;;;;;10.10;97.00;;;;;;4262063;33;43959;-83
2022/03/31 06:17:43;;;;;;;;;;;10.10;97.00;;;;;;4274772;33;43168;-84
2022/03/31 06:20:11;;;;;;;;;;;10.10;96.90;;;;;;4262286;33;43854;-84
2022/03/31 06:22:38;;;;;;;;;;;10.10;97.00;;;;;;4275240;33;46017;-84
2022/03/31 06:25:11;;;;;;;;;;;10.10;96.70;;;;;;4275173;33;43009;-83
2022/03/31 06:27:38;;;;;;;;;;;10.00;96.80;;;;;;4261964;33;44313;-84
2022/03/31 06:30:06;;;;;;;;;;;10.00;96.70;;;;;;4274767;33;43965;-84
2022/03/31 06:32:33;;;;;;;;;;;10.00;96.70;;;;;;4262223;33;43285;-83
2022/03/31 06:35:00;;;;;;;;;;;9.90;96.60;;;;;;4274801;33;43209;-83
2022/03/31 06:37:27;;;;;;;;;;;9.90;96.60;;;;;;4261737;33;43019;-84
2022/03/31 06:39:55;;;;;;;;;;;9.90;96.70;;;;;;4274887;33;45025;-84
2022/03/31 06:42:24;;;;;;;;;;;9.90;96.70;;;;;;4274485;33;42359;-84
2022/03/31 06:44:56;;;;;;;;;;;9.80;96.80;;;;;;4273610;33;43752;-83
2022/03/31 06:47:43;;;;;;;;;;;9.80;96.60;;;;;;4264309;33;46255;-83
2022/03/31 06:50:11;;;;;;;;;;;9.80;96.50;;;;;;4274762;33;44326;-84
2022/03/31 06:52:38;;;;;;;;;;;9.80;96.60;;;;;;4274820;33;43945;-84
2022/03/31 06:55:06;;;;;;;;;;;9.80;96.50;;;;;;4274994;33;43521;-84
2022/03/31 06:57:33;;;;;;;;;;;9.70;96.70;;;;;;4262095;33;44162;-84
2022/03/31 07:00:00;;;;;;;;;;;9.70;96.50;;;;;;4274507;33;43529;-83
2022/03/31 07:02:27;;;;;;;;;;;9.70;96.70;;;;;;4261311;33;42878;-83
2022/03/31 07:04:54;;;;;;;;;;;9.70;96.70;;;;;;4274551;33;44227;-83
2022/03/31 07:07:21;;;;;;;;;;;9.70;96.60;;;;;;4274155;33;43979;-84
2022/03/31 07:09:48;;;;;;;;;;;9.70;96.50;;;;;;4274126;33;44503;-84
2022/03/31 07:12:16;;;;;;;;;;;9.70;96.60;;;;;;4274081;33;43019;-84
2022/03/31 07:14:44;;;;;;;;;;;9.60;96.60;;;;;;4274695;33;44039;-84
2022/03/31 07:17:11;;;;;;;;;;;9.60;96.80;;;;;;4273886;33;43517;-83
2022/03/31 07:19:38;;;;;;;;;;;9.60;96.70;;;;;;4261459;33;44024;-84
2022/03/31 07:22:05;;;;;;;;;;;9.60;96.80;;;;;;4274383;33;44658;-83
2022/03/31 07:24:32;;;;;;;;;;;9.60;96.60;;;;;;4273909;33;44122;-83
2022/03/31 07:27:01;;;;;;;;;;;9.60;96.80;;;;;;4274402;33;43855;-83
2022/03/31 07:29:28;;;;;;;;;;;9.60;96.90;;;;;;4273782;33;45282;-84
2022/03/31 07:31:56;;;;;;;;;;;9.60;96.70;;;;;;4274364;33;43034;-83
2022/03/31 07:34:26;;;;;;;;;;;9.60;96.90;;;;;;4261466;33;43318;-83
2022/03/31 07:36:54;;;;;;;;;;;9.50;97.00;;;;;;4273901;33;42524;-84
2022/03/31 07:39:21;;;;;;;;;;;9.50;96.80;;;;;;4260903;33;43701;-84
2022/03/31 07:41:48;;;;;;;;;;;9.50;96.70;;;;;;4274314;33;44231;-83
2022/03/31 07:44:15;;;;;;;;;;;9.50;96.60;;;;;;4261036;33;43825;-83
2022/03/31 07:46:43;;;;;;;;;;;9.50;96.70;;;;;;4273550;33;44156;-83
2022/03/31 07:49:14;;;;;;;;;;;9.50;96.80;;;;;;4261035;33;43901;-83
2022/03/31 07:51:43;;;;;;;;;;;9.40;96.80;;;;;;4261234;33;43173;-84
2022/03/31 07:54:10;;;;;;;;;;;9.40;97.00;;;;;;4261309;33;45653;-83
2022/03/31 07:56:37;;;;;;;;;;;9.50;96.80;;;;;;4273495;33;43479;-83
2022/03/31 07:59:06;;;;;;;;;;;9.40;96.80;;;;;;4261130;33;43203;-84
2022/03/31 08:01:33;;;;;;;;;;;9.40;96.80;;;;;;4260439;33;43360;-83
2022/03/31 08:04:02;;;;;;;;;;;9.40;96.90;;;;;;4261222;33;43923;-84
2022/03/31 08:06:29;;;;;;;;;;;9.40;96.90;;;;;;4261192;33;44643;-84
2022/03/31 08:08:56;;;;;;;;;;;9.40;96.80;;;;;;4273863;33;44357;-83
2022/03/31 08:11:23;;;;;;;;;;;9.40;96.80;;;;;;4273598;33;44965;-83
2022/03/31 08:13:53;;;;;;;;;;;9.40;96.70;;;;;;4273239;33;42329;-83
2022/03/31 08:16:20;;;;;;;;;;;9.40;96.50;;;;;;4260657;33;43217;-83
2022/03/31 08:18:47;;;;;;;;;;;9.30;96.50;;;;;;4260547;33;44200;-82
2022/03/31 08:21:14;;;;;;;;;;;9.30;96.50;;;;;;4273366;33;41778;-82
2022/03/31 08:23:41;;;;;;;;;;;9.30;96.50;;;;;;4273368;33;42561;-82
2022/03/31 08:26:09;;;;;;;;;;;9.30;96.40;;;;;;4260433;33;43080;-82
2022/03/31 08:28:36;;;;;;;;;;;9.30;96.50;;;;;;4259652;33;44122;-82
2022/03/31 08:31:03;;;;;;;;;;;9.20;96.50;;;;;;4273208;33;43858;-82
2022/03/31 08:33:30;;;;;;;;;;;9.20;96.50;;;;;;4273178;33;43681;-82
2022/03/31 08:35:58;;;;;;;;;;;9.10;96.70;;;;;;4273077;33;44336;-82
2022/03/31 08:38:25;;;;;;;;;;;9.10;96.70;;;;;;4260665;33;44105;-82
2022/03/31 08:40:56;;;;;;;;;;;9.10;96.70;;;;;;4273373;33;43950;-82
2022/03/31 08:43:26;;;;;;;;;;;9.10;96.80;;;;;;4260623;33;44098;-82
2022/03/31 08:45:55;;;;;;;;;;;9.10;96.70;;;;;;4273241;33;44613;-82
2022/03/31 08:48:23;;;;;;;;;;;9.10;96.60;;;;;;4260299;33;42882;-82
2022/03/31 08:50:51;;;;;;;;;;;9.10;96.60;;;;;;4260405;33;43940;-82
2022/03/31 08:53:18;;;;;;;;;;;9.00;96.70;;;;;;4260413;33;44391;-82
2022/03/31 08:55:47;;;;;;;;;;;9.10;96.60;;;;;;4260520;33;43116;-82
2022/03/31 08:58:14;;;;;;;;;;;9.00;96.60;;;;;;4260356;33;45542;-82
2022/03/31 09:00:45;;;;;;;;;;;9.00;96.50;;;;;;4272597;33;44143;-82
2022/03/31 09:03:13;;;;;;;;;;;9.00;96.70;;;;;;4272330;33;43767;-82
2022/03/31 09:05:41;;;;;;;;;;;9.00;96.80;;;;;;4272483;33;44799;-82
2022/03/31 09:08:12;;;;;;;;;;;8.90;96.70;;;;;;4272951;33;45074;-82
2022/03/31 09:10:42;;;;;;;;;;;8.90;96.70;;;;;;4260509;33;42918;-82
2022/03/31 09:13:38;;;;;;;;;;;8.90;96.80;;;;;;4260067;33;42895;-82
2022/03/31 09:16:06;;;;;;;;;;;8.90;96.80;;;;;;4271255;33;42763;-82
2022/03/31 09:18:34;;;;;;;;;;;8.90;96.80;;;;;;4272794;33;44486;-82
2022/03/31 09:21:02;;;;;;;;;;;8.80;96.80;;;;;;4272802;33;43113;-82
2022/03/31 09:23:32;;;;;;;;;;;8.90;96.70;;;;;;4272488;33;43312;-83
2022/03/31 09:26:06;;;;;;;;;;;8.80;96.70;;;;;;4260269;33;42910;-83
2022/03/31 09:28:33;;;;;;;;;;;8.80;96.60;;;;;;4260097;33;44516;-82
2022/03/31 09:31:01;;;;;;;;;;;8.80;96.80;;;;;;4272649;33;43059;-82
2022/03/31 09:33:28;;;;;;;;;;;8.80;96.60;;;;;;4272260;33;43479;-83
2022/03/31 09:35:59;;;;;;;;;;;8.80;96.50;;;;;;4260076;33;43953;-83
2022/03/31 09:38:27;;;;;;;;;;;8.70;96.50;;;;;;4272373;33;43810;-83
2022/03/31 09:40:57;;;;;;;;;;;8.70;96.40;;;;;;4272101;33;44349;-83
2022/03/31 09:43:24;;;;;;;;;;;8.70;96.30;;;;;;4272545;33;43841;-83
2022/03/31 09:45:51;;;;;;;;;;;8.60;96.40;;;;;;4259838;33;43474;-83
2022/03/31 09:48:25;;;;;;;;;;;8.60;96.40;;;;;;4272622;33;42936;-83
2022/03/31 09:50:53;;;;;;;;;;;8.60;96.20;;;;;;4259959;33;44132;-83
2022/03/31 09:53:20;;;;;;;;;;;8.60;96.30;;;;;;4259880;33;45636;-83
2022/03/31 09:55:47;;;;;;;;;;;8.60;96.40;;;;;;4259613;33;44632;-82
2022/03/31 09:58:18;;;;;;;;;;;8.50;96.20;;;;;;4272552;33;43825;-83
2022/03/31 10:00:46;;;;;;;;;;;8.50;96.20;;;;;;4272308;33;43392;-83
2022/03/31 10:03:14;;;;;;;;;;;8.50;96.20;;;;;;4272231;33;43203;-82
2022/03/31 10:05:45;;;;;;;;;;;8.50;96.20;;;;;;4272648;33;43326;-83
2022/03/31 10:08:13;;;;;;;;;;;8.40;96.20;;;;;;4259860;33;45057;-83
2022/03/31 10:10:41;;;;;;;;;;;8.40;96.30;;;;;;4259591;33;43304;-83
2022/03/31 10:13:22;;;;;;;;;;;8.40;96.20;;;;;;4259410;33;43513;-83
2022/03/31 10:15:58;;;;;;;;;;;8.30;96.30;;;;;;4259199;33;43998;-83
2022/03/31 10:18:25;;;;;;;;;;;8.30;96.40;;;;;;4272448;33;44617;-82
2022/03/31 10:20:54;;;;;;;;;;;8.30;96.50;;;;;;4259552;33;42737;-82
2022/03/31 10:26:07;;;;;;;;;;;8.30;96.60;;;;;;4272479;33;43949;-82
2022/03/31 10:28:34;;;;;;;;;;;8.30;96.80;;;;;;4272952;33;20007;-81
2022/03/31 10:31:09;;;;;;;;;;;8.30;96.80;;;;;;4271868;33;43349;-82
2022/03/31 10:33:38;;;;;;;;;;;8.20;96.80;;;;;;4272478;33;43271;-82
2022/03/31 10:36:13;;;;;;;;;;;8.20;96.70;;;;;;4272287;33;43815;-82
2022/03/31 10:38:54;;;;;;;;;;;8.20;96.70;;;;;;4272526;33;43474;-82
2022/03/31 10:41:28;;;;;;;;;;;8.20;96.70;;;;;;4272643;33;43655;-82
2022/03/31 10:43:58;;;;;;;;;;;8.20;96.80;;;;;;4272482;33;44204;-82
2022/03/31 10:46:25;;;;;;;;;;;8.20;96.80;;;;;;4259109;33;43940;-82
2022/03/31 10:48:54;;;;;;;;;;;8.20;96.90;;;;;;4259143;33;43290;-82
2022/03/31 10:51:50;;;;;;;;;;;8.20;96.90;;;;;;4272690;33;43489;-82
2022/03/31 10:54:30;;;;;;;;;;;8.20;97.00;;;;;;4265410;33;45968;-82
2022/03/31 10:57:07;;;;;;;;;;;8.20;96.90;;;;;;4262014;33;42317;-82
2022/03/31 10:59:35;;;;;;;;;;;8.20;96.90;;;;;;4275021;33;20014;-82
2022/03/31 11:02:22;;;;;;;;;;;8.20;97.00;;;;;;4274111;33;44520;-82
2022/03/31 11:04:52;;;;;;;;;;;8.20;97.10;;;;;;4261917;33;43333;-82
2022/03/31 11:07:22;;;;;;;;;;;8.10;97.10;;;;;;4261444;33;42879;-81
2022/03/31 11:09:59;;;;;;;;;;;8.10;97.10;;;;;;4261387;33;43526;-82
2022/03/31 11:12:34;;;;;;;;;;;8.10;97.20;;;;;;4262051;33;43259;-82
2022/03/31 11:15:04;;;;;;;;;;;8.10;97.30;;;;;;4262093;33;44209;-82
2022/03/31 11:17:31;;;;;;;;;;;8.20;97.20;;;;;;4261668;33;46001;-81
2022/03/31 11:20:03;;;;;;;;;;;8.10;97.20;;;;;;4274448;33;44070;-82
2022/03/31 11:22:30;;;;;;;;;;;8.10;97.30;;;;;;4274703;33;44049;-82
2022/03/31 11:25:10;;;;;;;;;;;8.20;97.30;;;;;;4274432;33;44861;-82
2022/03/31 11:27:39;;;;;;;;;;;8.10;97.30;;;;;;4261804;33;43274;-81
2022/03/31 11:30:09;;;;;;;;;;;8.10;97.40;;;;;;4274343;33;44378;-81
2022/03/31 11:32:36;;;;;;;;;;;8.10;97.30;;;;;;4273789;33;43891;-81
2022/03/31 11:35:08;;;;;;;;;;;8.10;97.30;;;;;;4274243;33;44105;-81
2022/03/31 11:37:40;;;;;;;;;;;8.10;97.20;;;;;;4261312;33;42705;-81
2022/03/31 11:40:10;;;;;;;;;;;8.10;97.20;;;;;;4274247;33;45060;-81
2022/03/31 11:42:47;;;;;;;;;;;8.10;97.50;;;;;;4261474;33;45142;-81
2022/03/31 11:45:31;;;;;;;;;;;8.10;97.40;;;;;;4274006;33;45538;-82
2022/03/31 11:48:03;;;;;;;;;;;8.10;97.40;;;;;;4261353;33;43195;-81
2022/03/31 11:50:32;;;;;;;;;;;8.10;97.30;;;;;;4273769;33;43598;-81
2022/03/31 11:53:23;;;;;;;;;;;8.10;97.40;;;;;;4273988;33;46553;-81
2022/03/31 11:56:21;;;;;;;;;;;8.10;97.60;;;;;;4261296;33;44636;-82
2022/03/31 11:58:50;;;;;;;;;;;8.10;97.60;;;;;;4273310;33;45020;-81
2022/03/31 12:01:19;;;;;;;;;;;8.00;97.60;;;;;;4273922;33;42979;-82
2022/03/31 12:03:47;;;;;;;;;;;8.00;97.60;;;;;;4273925;33;44567;-82
2022/03/31 12:06:15;;;;;;;;;;;8.00;97.60;;;;;;4261201;33;43495;-81
2022/03/31 12:08:43;;;;;;;;;;;8.00;97.60;;;;;;4273309;33;43231;-81
2022/03/31 12:11:13;;;;;;;;;;;8.00;97.70;;;;;;4261050;33;43197;-81
2022/03/31 12:13:51;;;;;;;;;;;8.00;97.60;;;;;;4273747;33;43228;-81
2022/03/31 12:16:18;;;;;;;;;;;8.00;97.50;;;;;;4273331;33;43737;-81
2022/03/31 12:18:55;;;;;;;;;;;8.00;97.60;;;;;;4273547;33;42312;-82
2022/03/31 12:21:23;;;;;;;;;;;8.00;97.80;;;;;;4260715;33;43836;-81
2022/03/31 12:23:51;;;;;;;;;;;8.00;97.50;;;;;;4260800;33;42259;-81
2022/03/31 12:26:37;;;;;;;;;;;8.00;97.60;;;;;;4262921;33;44770;-82
2022/03/31 12:29:14;;;;;;;;;;;8.00;97.50;;;;;;4273125;33;43521;-81
2022/03/31 12:31:43;;;;;;;;;;;8.00;97.50;;;;;;4273160;33;44132;-82
2022/03/31 12:34:11;;;;;;;;;;;7.90;97.60;;;;;;4273248;33;43865;-81
2022/03/31 12:36:38;;;;;;;;;;;7.90;97.60;;;;;;4272895;33;42342;-81
2022/03/31 12:39:05;;;;;;;;;;;7.90;97.80;;;;;;4273203;33;43460;-81
2022/03/31 12:41:36;;;;;;;;;;;7.90;97.90;;;;;;4272745;33;44250;-81
2022/03/31 12:44:05;;;;;;;;;;;7.90;97.80;;;;;;4273441;33;43965;-82
2022/03/31 12:46:42;;;;;;;;;;;7.90;97.80;;;;;;4260589;33;44252;-82
2022/03/31 12:49:16;;;;;;;;;;;7.90;97.70;;;;;;4261238;33;45818;-81
2022/03/31 12:51:44;;;;;;;;;;;7.90;97.80;;;;;;4273031;33;42723;-81
2022/03/31 12:54:26;;;;;;;;;;;7.80;97.70;;;;;;4273117;33;44230;-82
2022/03/31 12:56:55;;;;;;;;;;;7.90;97.90;;;;;;4260057;33;44024;-82
2022/03/31 12:59:26;;;;;;;;;;;7.90;98.00;;;;;;4260128;33;44080;-82
2022/03/31 13:02:01;;;;;;;;;;;7.80;98.10;;;;;;4260097;33;44020;-82
2022/03/31 13:04:29;;;;;;;;;;;7.90;98.10;;;;;;4273077;33;44835;-82
2022/03/31 13:06:56;;;;;;;;;;;7.90;98.10;;;;;;4273006;33;43005;-82
2022/03/31 13:09:23;;;;;;;;;;;7.90;98.00;;;;;;4272706;33;44011;-82
2022/03/31 13:11:53;;;;;;;;;;;7.90;98.30;;;;;;4272670;33;43027;-82
2022/03/31 13:14:22;;;;;;;;;;;7.80;98.30;;;;;;4272259;33;42318;-81
2022/03/31 13:16:49;;;;;;;;;;;7.90;98.20;;;;;;4259720;33;44109;-82
2022/03/31 13:19:16;;;;;;;;;;;7.90;98.30;;;;;;4272842;33;41994;-82
2022/03/31 13:21:44;;;;;;;;;;;7.90;98.30;;;;;;4272765;33;44358;-82
2022/03/31 13:24:13;;;;;;;;;;;7.90;98.40;;;;;;4260008;33;44363;-82
2022/03/31 13:26:41;;;;;;;;;;;7.90;98.40;;;;;;4260250;33;42912;-82
2022/03/31 13:29:10;;;;;;;;;;;7.90;98.40;;;;;;4260082;33;44062;-82
2022/03/31 13:31:40;;;;;;;;;;;7.90;98.60;;;;;;4259580;33;44001;-82
2022/03/31 13:34:08;;;;;;;;;;;7.90;98.70;;;;;;4260177;33;43419;-83
2022/03/31 13:36:36;;;;;;;;;;;7.90;98.70;;;;;;4259491;33;43887;-82
2022/03/31 13:39:06;;;;;;;;;;;7.90;98.60;;;;;;4272455;33;44271;-82
2022/03/31 13:41:33;;;;;;;;;;;7.90;98.70;;;;;;4260063;33;44458;-83
2022/03/31 13:44:00;;;;;;;;;;;7.90;98.60;;;;;;4259896;33;43356;-83
2022/03/31 13:46:27;;;;;;;;;;;7.90;98.50;;;;;;4259625;33;43081;-83
2022/03/31 13:48:55;;;;;;;;;;;7.90;98.60;;;;;;4272153;33;44914;-83
2022/03/31 13:51:22;;;;;;;;;;;7.90;98.60;;;;;;4259695;33;44916;-83
2022/03/31 13:53:53;;;;;;;;;;;7.90;98.60;;;;;;4272384;33;42634;-83
2022/03/31 13:56:21;;;;;;;;;;;7.90;98.70;;;;;;4259976;33;43302;-83
2022/03/31 14:01:35;;;;;;;;;;;7.90;98.60;;;;;;4272002;33;43066;-83
2022/03/31 14:04:03;;;;;;;;;;;7.90;98.60;;;;;;4272759;33;43157;-83
2022/03/31 14:06:30;;;;;;;;;;;7.90;98.60;;;;;;4272073;33;43905;-84
2022/03/31 14:09:02;;;;;;;;;;;7.90;98.60;;;;;;4259557;33;43330;-84
2022/03/31 14:11:34;;;;;;;;;;;7.90;98.60;;;;;;4272641;33;42807;-84
2022/03/31 14:14:03;;;;;;;;;;;8.00;98.60;;;;;;4272435;33;45844;-84
2022/03/31 14:16:31;;;;;;;;;;;7.90;98.60;;;;;;4272234;33;42734;-84
2022/03/31 14:19:03;;;;;;;;;;;7.90;98.50;;;;;;4259823;33;44225;-83
2022/03/31 14:21:30;;;;;;;;;;;7.90;98.80;;;;;;4259598;33;42860;-83
2022/03/31 14:23:57;;;;;;;;;;;7.90;98.80;;;;;;4272416;33;43601;-85
2022/03/31 14:26:24;;;;;;;;;;;7.90;98.70;;;;;;4272775;33;44263;-84
2022/03/31 14:28:52;;;;;;;;;;;7.90;98.70;;;;;;4274841;33;44247;-83
2022/03/31 14:31:21;;;;;;;;;;;7.90;98.60;;;;;;4274661;33;43807;-84
2022/03/31 14:34:01;;;;;;;;;;;7.90;98.70;;;;;;4263704;33;45865;-84
2022/03/31 14:36:28;;;;;;;;;;;7.90;98.90;;;;;;4262225;33;43209;-84
2022/03/31 14:38:56;;;;;;;;;;;7.80;98.80;;;;;;4274571;33;42516;-83
2022/03/31 14:41:23;;;;;;;;;;;7.90;98.90;;;;;;4261885;33;44315;-84